ESSP/NRK METAR and TAF weather

Enter ICAO airport designator
Station Type Date Time Source
ESSP METAR 2020/07/11 19:50 UTC NOAA

ESSP 111950Z AUTO 25009KT 9999 BKN096/// 14/09 Q1014


Station Type Date Time Source
ESSP Decoded METAR 2020/07/11 19:50 UTC NOAA

Norrkoping, Sweden (ESSP) 58-35N 016-09E 0M
Jul 11, 2020 - 03:50 PM EDT / 2020.07.11 1950 UTC
Wind: from the WSW (250 degrees) at 10 MPH (9 KT):0
Visibility: greater than 7 mile(s):0
Sky conditions: mostly cloudy
Temperature: 57 F (14 C)
Dew Point: 48 F (9 C)
Relative Humidity: 71%
Pressure (altimeter): 29.94 in. Hg (1014 hPa)
ob: ESSP 111950Z AUTO 25009KT 9999 BKN096/// 14/09 Q1014
cycle: 20

Station Type Date Time Source
ESSP TAF 2018/01/01 02:31 UTC NOAA

TAF ESSP 010130Z 0102/0206 16002KT 9999 BKN004 PROB40 0102/0106 4000 BR SCT004

Example: see airport list